Time;durP1;ratioP1;P1;durP2;ratioP2;P2;SDS_P1;SDS_P2;PMS_P1;PMS_P2;Temp;Humidity;BMP_temperature;BMP_pressure;BME280_temperature;BME280_humidity;BME280_pressure;Samples;Min_cycle;Max_cycle;Signal;HPM_P1;HPM_P2
2022/04/19 00:01:20;;;;;;;4.55;3.53;;;11.40;99.90;;;;;;4954528;29;20032;-86
2022/04/19 00:03:46;;;;;;;8.65;3.65;;;11.30;99.90;;;;;;4956446;29;20023;-88
2022/04/19 00:06:12;;;;;;;8.65;3.78;;;11.20;99.90;;;;;;4954267;29;20114;-87
2022/04/19 00:08:38;;;;;;;6.78;3.28;;;11.20;99.90;;;;;;4955244;29;20078;-87
2022/04/19 00:11:04;;;;;;;4.57;3.10;;;11.10;99.90;;;;;;4955648;29;20535;-88
2022/04/19 00:13:30;;;;;;;4.00;2.80;;;11.00;99.90;;;;;;4954792;29;20035;-87
2022/04/19 00:15:57;;;;;;;5.43;3.08;;;10.90;99.90;;;;;;4954628;29;20027;-87
2022/04/19 00:18:24;;;;;;;5.82;3.42;;;10.80;99.90;;;;;;4956440;29;20451;-88
2022/04/19 00:20:50;;;;;;;4.50;3.15;;;10.70;99.90;;;;;;4953360;29;20073;-87
2022/04/19 00:23:16;;;;;;;6.00;3.10;;;10.60;99.90;;;;;;4954701;29;20067;-87
2022/04/19 00:25:47;;;;;;;5.43;2.70;;;10.60;99.90;;;;;;4954168;29;20138;-86
2022/04/19 00:28:14;;;;;;;4.57;3.17;;;10.50;99.90;;;;;;4954299;29;20023;-86
2022/04/19 00:30:41;;;;;;;6.60;2.55;;;10.60;99.90;;;;;;4954599;28;20034;-86
2022/04/19 00:33:08;;;;;;;6.75;3.13;;;10.60;99.90;;;;;;4955361;29;20035;-85
2022/04/19 00:35:35;;;;;;;4.75;3.08;;;10.60;99.90;;;;;;4953442;29;20023;-87
2022/04/19 00:38:01;;;;;;;8.65;3.42;;;10.70;99.90;;;;;;4955519;29;20027;-87
2022/04/19 00:40:27;;;;;;;4.85;3.58;;;10.70;99.90;;;;;;4955573;29;20046;-87
2022/04/19 00:42:54;;;;;;;5.90;3.15;;;10.70;99.90;;;;;;4954400;29;20027;-86
2022/04/19 00:45:24;;;;;;;5.70;2.97;;;10.70;99.90;;;;;;4954016;29;20598;-87
2022/04/19 00:47:54;;;;;;;8.00;2.88;;;10.70;99.90;;;;;;4954704;29;20031;-85
2022/04/19 00:50:20;;;;;;;3.75;3.00;;;10.60;99.90;;;;;;4955553;29;20031;-86
2022/04/19 00:52:46;;;;;;;5.13;2.90;;;10.50;99.90;;;;;;4955278;29;20039;-86
2022/04/19 00:55:12;;;;;;;6.55;3.13;;;10.40;99.90;;;;;;4954764;29;20110;-86
2022/04/19 00:57:40;;;;;;;4.75;3.10;;;10.40;99.90;;;;;;4954342;29;20037;-86
2022/04/19 01:00:08;;;;;;;5.68;3.20;;;10.40;99.90;;;;;;4954998;29;20113;-85
2022/04/19 01:02:36;;;;;;;6.45;3.10;;;10.30;99.90;;;;;;4951065;29;20023;-85
2022/04/19 01:05:04;;;;;;;5.25;3.20;;;10.30;99.90;;;;;;4938123;29;20498;-84
2022/04/19 01:07:42;;;;;;;5.20;2.97;;;10.20;99.90;;;;;;4953667;28;20457;-85
2022/04/19 01:10:08;;;;;;;6.55;3.72;;;10.20;99.90;;;;;;4941177;29;20395;-85
2022/04/19 01:15:36;;;;;;;7.15;3.20;;;10.00;99.90;;;;;;4941854;29;20029;-84
2022/04/19 01:18:22;;;;;;;7.03;3.45;;;10.00;99.90;;;;;;4953821;29;20046;-84
2022/04/19 01:20:58;;;;;;;5.80;2.92;;;10.00;99.90;;;;;;4952126;29;20094;-85
2022/04/19 01:23:29;;;;;;;4.63;2.65;;;9.90;99.90;;;;;;4955571;29;20028;-92
2022/04/19 01:26:02;;;;;;;5.25;2.40;;;9.90;99.90;;;;;;4954276;29;20028;-86
2022/04/19 01:28:31;;;;;;;5.18;2.83;;;9.80;99.90;;;;;;4949093;29;20114;-85
2022/04/19 01:31:14;;;;;;;5.32;2.92;;;9.80;99.90;;;;;;4952602;29;20027;-85
2022/04/19 01:33:56;;;;;;;;;;;;;;;;;;;;;
2022/04/19 01:36:31;;;;;;;4.90;2.92;;;9.90;99.90;;;;;;4953865;29;20030;-85
2022/04/19 01:39:03;;;;;;;5.65;3.08;;;10.00;99.90;;;;;;4953296;29;20442;-86
2022/04/19 01:41:29;;;;;;;4.75;2.85;;;10.00;99.90;;;;;;4952728;29;20028;-86
2022/04/19 01:44:05;;;;;;;3.65;2.80;;;10.10;99.90;;;;;;4953042;29;20069;-86
2022/04/19 01:46:35;;;;;;;4.65;2.53;;;10.10;99.90;;;;;;4953889;29;20035;-84
2022/04/19 01:49:05;;;;;;;5.40;2.85;;;10.10;99.90;;;;;;4947465;29;20035;-86
2022/04/19 01:51:45;;;;;;;3.85;2.90;;;10.10;99.90;;;;;;4953697;29;20027;-86
2022/04/19 01:54:17;;;;;;;4.75;2.88;;;10.10;99.90;;;;;;4948606;29;20143;-85
2022/04/19 01:56:54;;;;;;;6.70;3.10;;;10.10;99.90;;;;;;4952927;29;20027;-85
2022/04/19 01:59:23;;;;;;;5.63;2.80;;;10.10;99.90;;;;;;4953256;29;20035;-85
2022/04/19 02:02:09;;;;;;;9.27;3.38;;;10.00;99.90;;;;;;4951829;29;20121;-87
2022/04/19 02:04:34;;;;;;;4.60;3.22;;;10.00;99.90;;;;;;4954300;29;20106;-86
2022/04/19 02:07:18;;;;;;;4.93;3.08;;;10.00;99.90;;;;;;4952086;28;20127;-85
2022/04/19 02:10:22;;;;;;;4.80;3.33;;;10.00;99.90;;;;;;4953299;29;20023;-86
2022/04/19 02:12:52;;;;;;;5.05;3.08;;;10.00;99.90;;;;;;4862326;29;20420;-84
2022/04/19 02:15:18;;;;;;;5.25;2.97;;;10.10;99.90;;;;;;4883501;29;20041;-84
2022/04/19 02:17:52;;;;;;;4.47;3.47;;;10.00;99.90;;;;;;4873024;29;20027;-84
2022/04/19 02:20:19;;;;;;;4.57;3.05;;;10.00;99.90;;;;;;4896041;29;20037;-85
2022/04/19 02:22:46;;;;;;;6.47;3.10;;;10.00;99.90;;;;;;4951217;29;20447;-85
2022/04/19 02:28:21;;;;;;;7.05;3.17;;;9.90;99.90;;;;;;4940054;28;20541;-86
2022/04/19 02:30:53;;;;;;;13.60;3.50;;;9.90;99.90;;;;;;4950488;29;20058;-86
2022/04/19 02:33:19;;;;;;;8.95;3.40;;;9.90;99.90;;;;;;4953982;29;20042;-86
2022/04/19 02:35:45;;;;;;;5.85;2.67;;;9.90;99.90;;;;;;4952900;29;20023;-85
2022/04/19 02:38:14;;;;;;;4.82;2.72;;;9.80;99.90;;;;;;4953642;29;20062;-84
2022/04/19 02:40:40;;;;;;;5.38;2.97;;;9.80;99.90;;;;;;4953406;29;20054;-84
2022/04/19 02:43:09;;;;;;;4.88;3.10;;;9.80;99.90;;;;;;4952333;29;20127;-85
2022/04/19 02:45:38;;;;;;;4.28;2.83;;;9.70;99.90;;;;;;4953037;29;20031;-85
2022/04/19 02:48:05;;;;;;;10.77;2.67;;;9.60;99.90;;;;;;4952431;29;20054;-86
2022/04/19 02:50:43;;;;;;;3.90;2.85;;;9.60;99.90;;;;;;4953166;29;20027;-85
2022/04/19 02:53:09;;;;;;;4.18;2.40;;;9.50;99.90;;;;;;4952807;29;20027;-86
2022/04/19 02:55:36;;;;;;;3.63;2.70;;;9.50;99.90;;;;;;4951820;29;20380;-85
2022/04/19 02:58:11;;;;;;;6.80;3.45;;;9.40;99.90;;;;;;4953471;29;20027;-85
2022/04/19 03:00:38;;;;;;;9.98;3.00;;;9.40;99.90;;;;;;4952674;29;20525;-86
2022/04/19 03:03:03;;;;;;;4.00;2.70;;;9.30;99.90;;;;;;4952128;29;20122;-85
2022/04/19 03:05:29;;;;;;;5.18;3.35;;;9.20;99.90;;;;;;4952859;28;20102;-85
2022/04/19 03:07:55;;;;;;;6.20;2.60;;;9.20;99.90;;;;;;4952556;28;20034;-86
2022/04/19 03:10:24;;;;;;;6.05;3.15;;;9.10;99.90;;;;;;4953445;29;20034;-86
2022/04/19 03:12:51;;;;;;;11.25;3.15;;;9.00;99.90;;;;;;4952862;29;20118;-85
2022/04/19 03:15:18;;;;;;;6.88;3.10;;;8.90;99.90;;;;;;4952691;29;20050;-84
2022/04/19 03:17:44;;;;;;;6.03;3.30;;;8.80;99.90;;;;;;4952620;29;20078;-85
2022/04/19 03:20:16;;;;;;;4.50;3.15;;;8.70;99.90;;;;;;4953201;29;20031;-86
2022/04/19 03:28:13;;;;;;;7.03;3.20;;;8.60;99.90;;;;;;4950792;29;20027;-85
2022/04/19 03:30:39;;;;;;;17.30;3.42;;;8.60;99.90;;;;;;4952467;29;20086;-85
2022/04/19 03:33:05;;;;;;;7.38;3.60;;;8.50;99.90;;;;;;4952920;29;20071;-85
2022/04/19 03:35:43;;;;;;;4.53;3.17;;;8.40;99.90;;;;;;4951782;29;20031;-85
2022/04/19 03:38:12;;;;;;;4.50;2.90;;;8.40;99.90;;;;;;4953024;29;20019;-86
2022/04/19 03:40:38;;;;;;;13.10;3.08;;;8.30;99.90;;;;;;4952784;29;20039;-84
2022/04/19 03:43:07;;;;;;;7.70;3.00;;;8.20;99.90;;;;;;4957072;28;20027;-85
2022/04/19 03:45:46;;;;;;;6.93;2.90;;;8.20;99.90;;;;;;4952379;29;20027;-86
2022/04/19 03:48:15;;;;;;;4.88;3.28;;;8.20;99.90;;;;;;4951708;29;20027;-86
2022/04/19 03:50:41;;;;;;;6.93;2.85;;;8.10;99.90;;;;;;4952375;29;20057;-85
2022/04/19 03:53:08;;;;;;;14.07;3.15;;;8.00;99.90;;;;;;4952988;29;20027;-84
2022/04/19 03:55:37;;;;;;;5.95;2.78;;;7.90;99.90;;;;;;4950905;29;20051;-85
2022/04/19 03:58:03;;;;;;;4.32;2.65;;;7.90;99.90;;;;;;4952717;29;20031;-85
2022/04/19 04:00:30;;;;;;;3.72;3.15;;;7.90;99.90;;;;;;4952238;29;20039;-86
2022/04/19 04:02:56;;;;;;;5.43;2.80;;;7.80;99.90;;;;;;4952504;29;20063;-85
2022/04/19 04:05:24;;;;;;;4.03;3.05;;;7.80;99.90;;;;;;4952432;28;20039;-86
2022/04/19 04:07:53;;;;;;;4.95;3.13;;;7.80;99.90;;;;;;4951741;29;20042;-86
2022/04/19 04:10:19;;;;;;;8.18;3.20;;;7.70;99.90;;;;;;4951136;29;20030;-87
2022/04/19 04:12:45;;;;;;;5.90;3.33;;;7.70;99.90;;;;;;4952386;29;20031;-87
2022/04/19 04:15:11;;;;;;;5.68;3.13;;;7.70;99.90;;;;;;4951167;29;20046;-86
2022/04/19 04:17:37;;;;;;;7.63;3.58;;;7.70;99.90;;;;;;4954722;28;20121;-87
2022/04/19 04:20:02;;;;;;;7.72;3.00;;;7.70;99.90;;;;;;4954523;29;20035;-87
2022/04/19 04:22:28;;;;;;;6.80;3.33;;;7.70;99.90;;;;;;4955903;29;20102;-87
2022/04/19 04:24:54;;;;;;;11.48;3.50;;;7.70;99.90;;;;;;4955714;29;20027;-86
2022/04/19 04:27:20;;;;;;;16.25;3.33;;;7.70;99.90;;;;;;4956061;29;20502;-86
2022/04/19 04:29:46;;;;;;;6.60;3.50;;;7.70;99.90;;;;;;4955045;29;20051;-85
2022/04/19 04:32:12;;;;;;;5.50;3.25;;;7.70;99.90;;;;;;4954441;29;20062;-85
2022/04/19 04:34:38;;;;;;;3.80;3.00;;;7.80;99.90;;;;;;4955553;29;20047;-86
2022/04/19 04:37:03;;;;;;;6.80;2.85;;;7.80;99.90;;;;;;4969800;28;20100;-87
2022/04/19 04:39:29;;;;;;;4.47;3.05;;;7.90;99.90;;;;;;4954652;29;20042;-87
2022/04/19 04:41:55;;;;;;;3.60;2.92;;;7.90;99.90;;;;;;4955369;29;20643;-86
2022/04/19 04:44:21;;;;;;;4.47;3.22;;;7.90;99.90;;;;;;4955487;29;20031;-87
2022/04/19 04:49:36;;;;;;;4.43;3.40;;;8.10;99.90;;;;;;4955818;29;20038;-87
2022/04/19 04:52:04;;;;;;;6.23;3.30;;;8.20;99.90;;;;;;4954922;29;20031;-86
2022/04/19 04:54:30;;;;;;;4.75;3.28;;;8.30;99.90;;;;;;4954361;29;20662;-87
2022/04/19 04:56:55;;;;;;;7.93;3.00;;;8.50;99.90;;;;;;4955164;29;20038;-87
2022/04/19 04:59:21;;;;;;;5.50;3.25;;;8.60;99.90;;;;;;4955036;29;20110;-88
2022/04/19 05:01:47;;;;;;;6.55;3.15;;;8.80;99.90;;;;;;4953852;29;20410;-88
2022/04/19 05:04:13;;;;;;;5.53;3.15;;;9.00;99.90;;;;;;4956362;29;20039;-89
2022/04/19 05:06:39;;;;;;;8.02;3.15;;;9.10;99.90;;;;;;4955610;29;20602;-86
2022/04/19 05:09:04;;;;;;;7.38;3.05;;;9.30;99.90;;;;;;4957548;28;20071;-88
2022/04/19 05:11:30;;;;;;;6.28;3.25;;;9.40;99.90;;;;;;4954808;29;20520;-88
2022/04/19 05:13:56;;;;;;;4.50;3.30;;;9.40;99.90;;;;;;4955871;29;20035;-88
2022/04/19 05:16:22;;;;;;;6.10;3.08;;;9.50;99.90;;;;;;4953783;29;20537;-88
2022/04/19 05:18:47;;;;;;;7.05;3.40;;;9.60;99.90;;;;;;4956340;29;20031;-87
2022/04/19 05:21:13;;;;;;;4.47;2.80;;;9.70;99.90;;;;;;4955445;29;20043;-86
2022/04/19 05:23:39;;;;;;;9.20;3.38;;;9.80;99.90;;;;;;4955141;29;20680;-86
2022/04/19 05:26:04;;;;;;;5.00;3.20;;;9.90;99.90;;;;;;4954622;29;20027;-87
2022/04/19 05:28:30;;;;;;;11.63;3.35;;;9.90;99.90;;;;;;4953414;28;20023;-88
2022/04/19 05:30:56;;;;;;;9.48;3.30;;;10.00;99.90;;;;;;4954984;29;20038;-87
2022/04/19 05:33:22;;;;;;;6.63;3.20;;;10.00;99.90;;;;;;4955339;29;20031;-87
2022/04/19 05:35:48;;;;;;;4.40;3.10;;;10.10;99.90;;;;;;4953630;29;20032;-86
2022/04/19 05:38:14;;;;;;;5.82;3.05;;;10.10;99.90;;;;;;4955253;29;20034;-87
2022/04/19 05:40:40;;;;;;;5.95;3.30;;;10.10;99.90;;;;;;4954824;29;20482;-87
2022/04/19 05:43:06;;;;;;;6.20;2.75;;;10.10;99.90;;;;;;4955585;29;20023;-87
2022/04/19 05:45:32;;;;;;;4.20;2.70;;;10.20;99.90;;;;;;4954063;29;20106;-85
2022/04/19 05:47:57;;;;;;;4.95;2.95;;;10.30;99.90;;;;;;4954725;29;20434;-86
2022/04/19 05:50:23;;;;;;;5.45;3.40;;;10.40;99.90;;;;;;4953602;29;20086;-86
2022/04/19 05:52:49;;;;;;;10.43;3.47;;;10.40;99.90;;;;;;4953185;29;20027;-87
2022/04/19 05:55:15;;;;;;;7.47;3.42;;;10.50;99.90;;;;;;4953243;29;20035;-87
2022/04/19 05:57:41;;;;;;;4.15;3.20;;;10.50;99.90;;;;;;4953988;29;20027;-87
2022/04/19 06:00:07;;;;;;;6.22;3.10;;;10.60;99.90;;;;;;4954527;29;20061;-88
2022/04/19 06:05:17;;;;;;;4.57;2.83;;;10.90;99.90;;;;;;4941519;29;20045;-90
2022/04/19 06:07:47;;;;;;;3.65;2.78;;;11.10;99.90;;;;;;4956116;28;20023;-88
2022/04/19 06:10:16;;;;;;;10.18;3.78;;;11.30;99.90;;;;;;4958330;29;20043;-92
2022/04/19 06:12:42;;;;;;;10.43;5.15;;;11.50;99.90;;;;;;4958022;29;20207;-89
2022/04/19 06:15:12;;;;;;;16.38;7.93;;;11.70;99.90;;;;;;4951551;29;20554;-84
2022/04/19 06:17:38;;;;;;;8.45;5.05;;;11.90;99.90;;;;;;4952689;29;20085;-87
2022/04/19 06:20:05;;;;;;;16.33;7.60;;;12.00;99.90;;;;;;4948015;29;20023;-88
2022/04/19 06:22:34;;;;;;;11.13;4.25;;;12.00;99.90;;;;;;4948569;29;20074;-85
2022/04/19 06:25:01;;;;;;;15.63;2.95;;;12.20;99.90;;;;;;4946105;29;20479;-83
2022/04/19 06:27:27;;;;;;;6.60;2.88;;;12.20;99.90;;;;;;4951482;29;20031;-84
2022/04/19 06:29:53;;;;;;;3.25;2.80;;;12.30;99.90;;;;;;4947761;29;20030;-87
2022/04/19 06:32:19;;;;;;;5.50;3.03;;;12.50;99.90;;;;;;4951536;29;20023;-87
2022/04/19 06:34:45;;;;;;;6.82;3.20;;;12.60;99.90;;;;;;4947422;28;20695;-86
2022/04/19 06:37:11;;;;;;;6.65;2.97;;;12.80;99.90;;;;;;4950926;29;20027;-86
2022/04/19 06:39:37;;;;;;;4.72;2.85;;;13.00;99.90;;;;;;4946059;29;20695;-86
2022/04/19 06:42:03;;;;;;;7.32;2.60;;;13.20;99.90;;;;;;4951210;29;20078;-85
2022/04/19 06:44:29;;;;;;;4.05;2.47;;;13.40;99.90;;;;;;4942068;29;20150;-85
2022/04/19 06:46:55;;;;;;;11.55;2.90;;;13.60;99.90;;;;;;4949246;29;20131;-86
2022/04/19 06:49:21;;;;;;;3.55;2.78;;;13.80;99.90;;;;;;4945344;29;20066;-86
2022/04/19 06:51:48;;;;;;;5.10;2.58;;;14.00;97.90;;;;;;4953743;29;20041;-86
2022/04/19 06:54:15;;;;;;;2.75;2.33;;;14.20;98.00;;;;;;4944429;29;20526;-86
2022/04/19 06:56:41;;;;;;;9.75;2.83;;;14.30;96.80;;;;;;4948071;29;20105;-85
2022/04/19 06:59:08;;;;;;;3.10;2.33;;;14.30;95.60;;;;;;4946793;29;20498;-85
2022/04/19 07:01:35;;;;;;;10.80;3.15;;;14.40;95.40;;;;;;4946891;29;20035;-87
2022/04/19 07:04:01;;;;;;;5.43;2.97;;;14.30;96.20;;;;;;4944968;29;20083;-84
2022/04/19 07:06:27;;;;;;;7.88;2.70;;;14.30;95.90;;;;;;4949340;28;20031;-84
2022/04/19 07:08:53;;;;;;;4.43;2.40;;;14.20;96.30;;;;;;4949742;29;20041;-83
2022/04/19 07:11:19;;;;;;;5.63;2.78;;;14.10;95.20;;;;;;4955425;28;20106;-85
2022/04/19 07:13:44;;;;;;;3.78;2.60;;;14.00;96.20;;;;;;4952567;29;20405;-87
2022/04/19 07:16:10;;;;;;;6.65;2.50;;;14.00;95.20;;;;;;4951274;29;20027;-84
2022/04/19 07:18:36;;;;;;;3.83;2.58;;;13.90;93.90;;;;;;4953967;29;20110;-86
2022/04/19 07:26:40;;;;;;;5.75;2.47;;;14.00;94.00;;;;;;4953343;29;20030;-85
2022/04/19 07:29:12;;;;;;;3.45;2.20;;;14.10;93.30;;;;;;4953521;29;20394;-85
2022/04/19 07:31:42;;;;;;;2.90;2.42;;;14.10;91.60;;;;;;4951079;29;20538;-82
2022/04/19 07:34:10;;;;;;;2.65;2.30;;;14.00;93.70;;;;;;4936117;29;20462;-85
2022/04/19 07:36:39;;;;;;;4.88;2.60;;;14.00;91.10;;;;;;4933244;29;20027;-84
2022/04/19 07:39:14;;;;;;;5.35;2.20;;;14.10;90.80;;;;;;4934881;29;20397;-84
2022/04/19 07:41:42;;;;;;;8.32;2.28;;;14.00;90.50;;;;;;4952384;29;20099;-85
2022/04/19 07:44:08;;;;;;;3.75;2.30;;;14.00;87.20;;;;;;4941229;28;20024;-85
2022/04/19 07:46:35;;;;;;;3.15;2.40;;;14.00;88.50;;;;;;4930445;29;20039;-84
2022/04/19 07:49:01;;;;;;;5.15;2.10;;;14.10;86.50;;;;;;4946843;29;20023;-84
2022/04/19 07:51:28;;;;;;;2.65;2.17;;;14.00;87.10;;;;;;4952070;28;20033;-85
2022/04/19 07:53:54;;;;;;;3.30;2.00;;;14.20;85.90;;;;;;4950836;29;20105;-84
2022/04/19 07:56:20;;;;;;;4.50;2.30;;;14.20;90.00;;;;;;4950606;29;20024;-85
2022/04/19 07:58:47;;;;;;;5.00;3.03;;;14.40;85.00;;;;;;4956275;29;20030;-84
2022/04/19 08:01:14;;;;;;;2.55;2.08;;;14.40;85.40;;;;;;4955009;29;20510;-82
2022/04/19 08:03:40;;;;;;;3.63;2.47;;;14.40;84.80;;;;;;4948862;29;20065;-83
2022/04/19 08:06:06;;;;;;;7.18;2.63;;;14.50;83.50;;;;;;4936054;29;20066;-87
2022/04/19 08:08:32;;;;;;;4.90;2.53;;;14.40;81.90;;;;;;4950630;29;20035;-88
2022/04/19 08:10:58;;;;;;;5.15;2.58;;;14.50;81.70;;;;;;4952184;29;20487;-86
2022/04/19 08:13:24;;;;;;;2.47;2.08;;;14.60;85.90;;;;;;4950837;29;20566;-85
2022/04/19 08:15:50;;;;;;;2.55;2.33;;;14.80;86.10;;;;;;4932309;29;20039;-85
2022/04/19 08:18:18;;;;;;;3.90;2.22;;;14.80;83.70;;;;;;4936411;29;20027;-84
2022/04/19 08:20:44;;;;;;;3.53;2.25;;;14.90;85.50;;;;;;4932712;29;20085;-88
2022/04/19 08:23:10;;;;;;;3.53;2.08;;;14.90;81.60;;;;;;4956485;29;20043;-89
2022/04/19 08:25:37;;;;;;;4.75;2.35;;;15.10;82.00;;;;;;4952321;29;20019;-92
2022/04/19 08:28:04;;;;;;;4.18;2.88;;;15.10;82.30;;;;;;4958399;29;20028;-94
2022/04/19 08:30:30;;;;;;;4.75;2.70;;;15.20;81.70;;;;;;4958849;28;20008;-93
2022/04/19 08:32:57;;;;;;;6.10;2.50;;;15.10;81.70;;;;;;4945764;29;20027;-88
2022/04/19 08:35:23;;;;;;;3.17;2.40;;;15.10;80.50;;;;;;4953886;29;20069;-86
2022/04/19 08:37:49;;;;;;;5.03;2.45;;;15.00;80.50;;;;;;4938393;29;20027;-85
2022/04/19 08:40:16;;;;;;;2.75;2.05;;;14.90;79.70;;;;;;4947593;29;20031;-86
2022/04/19 08:42:43;;;;;;;3.60;2.47;;;15.00;80.50;;;;;;4953894;29;20015;-86
2022/04/19 08:45:11;;;;;;;3.97;2.58;;;15.10;82.20;;;;;;4946624;29;20058;-86
2022/04/19 08:47:42;;;;;;;2.95;2.00;;;15.20;81.40;;;;;;4937744;29;20074;-86
2022/04/19 08:50:11;;;;;;;2.35;1.98;;;15.00;78.70;;;;;;4930827;29;20086;-85
2022/04/19 08:52:38;;;;;;;5.40;2.38;;;15.00;78.50;;;;;;4951516;29;20505;-87
2022/04/19 08:57:53;;;;;;;4.63;2.10;;;15.30;82.00;;;;;;4955174;29;20077;-85
2022/04/19 09:00:23;;;;;;;2.38;2.00;;;15.30;80.80;;;;;;4952970;29;20117;-84
2022/04/19 09:02:53;;;;;;;6.60;2.47;;;15.30;77.90;;;;;;4952136;28;20031;-84
2022/04/19 09:05:21;;;;;;;7.40;4.90;;;15.30;79.00;;;;;;4949071;29;20062;-81
2022/04/19 09:07:49;;;;;;;4.43;2.95;;;15.30;78.50;;;;;;4946999;29;20110;-81
2022/04/19 09:10:37;;;;;;;3.28;2.50;;;15.10;77.50;;;;;;4943395;29;20513;-81
2022/04/19 09:13:06;;;;;;;5.88;2.83;;;15.20;79.70;;;;;;4949385;29;20158;-80
2022/04/19 09:15:34;;;;;;;8.30;4.47;;;15.40;77.70;;;;;;4931515;29;20031;-83
2022/04/19 09:18:00;;;;;;;9.65;6.75;;;15.30;77.80;;;;;;4933964;29;20023;-81
2022/04/19 09:20:26;;;;;;;5.30;3.28;;;15.20;79.00;;;;;;4949498;29;20031;-81
2022/04/19 09:23:05;;;;;;;7.70;2.55;;;15.20;78.30;;;;;;4948292;29;20051;-86
2022/04/19 09:25:32;;;;;;;3.90;2.15;;;15.30;78.30;;;;;;4947467;29;20019;-83
2022/04/19 09:27:58;;;;;;;6.07;4.70;;;15.10;77.70;;;;;;4950240;29;20066;-82
2022/04/19 09:30:31;;;;;;;9.32;3.78;;;14.90;79.50;;;;;;4943259;29;21038;-81
2022/04/19 09:33:08;;;;;;;5.20;3.95;;;14.90;79.50;;;;;;4949200;29;20412;-81
2022/04/19 09:35:56;;;;;;;3.92;2.53;;;14.90;78.20;;;;;;4944135;29;20510;-81
2022/04/19 09:38:38;;;;;;;4.47;2.42;;;15.10;79.40;;;;;;4950280;29;20521;-82
2022/04/19 09:41:05;;;;;;;5.10;2.70;;;15.40;78.60;;;;;;4949594;29;20058;-82
2022/04/19 09:43:32;;;;;;;3.05;2.50;;;15.40;76.90;;;;;;4952792;28;20155;-82
2022/04/19 09:46:02;;;;;;;4.55;2.60;;;15.30;77.90;;;;;;4945679;28;20102;-82
2022/04/19 09:48:31;;;;;;;5.13;2.30;;;15.30;76.70;;;;;;4951520;29;20118;-82
2022/04/19 09:50:58;;;;;;;3.67;2.58;;;15.20;77.50;;;;;;4952251;29;20058;-82
2022/04/19 09:53:26;;;;;;;2.70;2.15;;;15.20;78.00;;;;;;4954532;29;20032;-82
2022/04/19 09:55:54;;;;;;;5.60;2.20;;;15.20;80.50;;;;;;4952646;28;20030;-83
2022/04/19 09:58:20;;;;;;;5.55;2.05;;;15.10;76.80;;;;;;4954799;28;20517;-82
2022/04/19 10:00:48;;;;;;;4.28;2.15;;;14.90;77.30;;;;;;4954536;29;20045;-82
2022/04/19 10:08:38;;;;;;;4.32;2.70;;;14.90;78.80;;;;;;4950866;29;20086;-82
2022/04/19 10:11:05;;;;;;;4.38;2.35;;;14.90;77.80;;;;;;4952907;28;20490;-83
2022/04/19 10:13:32;;;;;;;8.70;4.28;;;15.00;77.40;;;;;;4951987;28;20057;-82
2022/04/19 10:15:59;;;;;;;11.13;4.75;;;15.30;81.80;;;;;;4934268;29;20046;-79
2022/04/19 10:18:24;;;;;;;7.30;3.08;;;15.30;81.80;;;;;;4951898;29;20023;-79
2022/04/19 10:20:50;;;;;;;5.88;3.88;;;15.60;83.30;;;;;;4951927;28;20446;-79
2022/04/19 10:23:16;;;;;;;5.95;3.88;;;15.80;80.40;;;;;;4953725;29;20089;-78
2022/04/19 10:25:44;;;;;;;5.05;2.78;;;16.00;82.90;;;;;;4953711;29;20398;-80
2022/04/19 10:28:30;;;;;;;7.35;3.88;;;16.20;80.00;;;;;;4951890;29;20590;-79
2022/04/19 10:30:58;;;;;;;13.15;3.85;;;16.20;84.20;;;;;;4935488;29;20035;-81
2022/04/19 10:33:39;;;;;;;8.18;2.50;;;16.30;83.10;;;;;;4954794;29;20058;-86
2022/04/19 10:36:37;;;;;;;5.15;2.10;;;16.30;76.50;;;;;;4946534;29;20062;-82
2022/04/19 10:39:11;;;;;;;3.17;2.25;;;16.00;75.40;;;;;;4944278;29;20062;-86
2022/04/19 10:41:47;;;;;;;7.38;2.38;;;15.90;77.60;;;;;;4951896;29;20102;-81
2022/04/19 10:44:24;;;;;;;3.40;2.45;;;16.00;77.60;;;;;;4948590;29;20395;-81
2022/04/19 10:47:19;;;;;;;6.28;2.45;;;15.80;79.00;;;;;;4952986;29;20550;-80
2022/04/19 10:49:55;;;;;;;4.78;2.40;;;15.60;79.10;;;;;;4951591;29;20070;-82
2022/04/19 10:52:39;;;;;;;4.95;2.50;;;15.60;79.90;;;;;;4939008;29;20037;-87
2022/04/19 10:55:10;;;;;;;9.60;2.85;;;15.70;80.90;;;;;;4944714;29;20039;-83
2022/04/19 11:00:51;;;;;;;7.35;2.80;;;16.10;77.70;;;;;;4953965;29;20089;-83
2022/04/19 11:03:34;;;;;;;7.43;2.75;;;15.90;77.60;;;;;;4939682;29;20478;-83
2022/04/19 11:06:05;;;;;;;7.07;2.60;;;15.90;80.50;;;;;;4953740;28;20030;-82
2022/04/19 11:08:37;;;;;;;4.25;2.63;;;16.10;77.50;;;;;;4950100;29;20027;-84
2022/04/19 11:11:04;;;;;;;;;;;16.20;77.50;;;;;;4953143;29;20028;-88
2022/04/19 11:13:38;;;;;;;3.95;2.50;;;16.40;77.40;;;;;;4937339;29;19941;-84
2022/04/19 11:16:08;;;;;;;4.70;2.90;;;16.50;76.80;;;;;;4957924;29;20463;-87
2022/04/19 11:18:53;;;;;;;3.45;2.40;;;16.50;76.50;;;;;;4938294;29;20630;-85
2022/04/19 11:21:51;;;;;;;3.72;2.38;;;16.50;77.50;;;;;;4952601;29;20517;-84
2022/04/19 11:24:56;;;;;;;3.03;2.25;;;16.30;77.80;;;;;;4953070;29;20031;-84
2022/04/19 11:27:22;;;;;;;4.00;2.38;;;16.30;77.90;;;;;;4931019;29;20067;-83
2022/04/19 11:29:48;;;;;;;3.25;2.30;;;16.20;79.40;;;;;;4942271;29;20065;-83
2022/04/19 11:32:24;;;;;;;5.68;2.50;;;16.40;79.10;;;;;;4941992;29;20028;-82
2022/04/19 11:34:59;;;;;;;3.10;2.25;;;16.30;79.90;;;;;;4942291;29;20118;-82
2022/04/19 11:37:25;;;;;;;10.70;2.55;;;16.40;79.70;;;;;;4957957;29;20034;-81
2022/04/19 11:48:09;;;;;;;5.57;2.65;;;17.20;77.90;;;;;;4960064;28;20082;-85
2022/04/19 11:50:35;;;;;;;4.43;2.50;;;17.10;79.10;;;;;;4959639;29;20031;-83
2022/04/19 11:53:01;;;;;;;4.63;2.50;;;17.50;77.80;;;;;;4956438;29;20024;-81
2022/04/19 11:55:27;;;;;;;3.10;2.58;;;17.40;75.80;;;;;;4938574;28;20039;-82
2022/04/19 11:58:08;;;;;;;3.10;2.28;;;17.20;76.00;;;;;;4957729;29;20098;-83
2022/04/19 12:00:34;;;;;;;19.27;2.83;;;17.20;77.40;;;;;;4951145;29;20035;-82
2022/04/19 12:03:03;;;;;;;5.07;2.55;;;16.60;78.30;;;;;;4953019;28;20023;-82
2022/04/19 12:05:30;;;;;;;7.88;2.45;;;16.60;77.50;;;;;;4936359;29;20031;-83
2022/04/19 12:07:57;;;;;;;5.22;2.40;;;16.30;76.20;;;;;;4954891;28;20027;-82
2022/04/19 12:10:23;;;;;;;4.40;2.03;;;16.20;79.00;;;;;;4952043;28;20070;-82
2022/04/19 12:12:52;;;;;;;4.07;2.42;;;16.00;81.70;;;;;;4954241;29;20055;-84
2022/04/19 12:15:40;;;;;;;2.78;2.10;;;16.00;81.20;;;;;;4958668;29;20039;-81
2022/04/19 12:18:06;;;;;;;3.70;2.15;;;16.50;78.20;;;;;;4976745;28;20070;-93
2022/04/19 12:20:44;;;;;;;3.40;2.08;;;16.90;78.30;;;;;;4962121;29;20062;-83
2022/04/19 12:23:20;;;;;;;2.58;2.08;;;18.20;75.20;;;;;;4940161;29;20135;-82
2022/04/19 12:26:04;;;;;;;3.20;2.25;;;20.70;74.80;;;;;;4941394;29;20126;-81
2022/04/19 12:28:34;;;;;;;3.38;2.40;;;22.40;70.00;;;;;;4954578;29;20062;-82
2022/04/19 12:31:00;;;;;;;7.72;2.05;;;22.30;66.90;;;;;;4958309;28;20019;-81
2022/04/19 12:33:25;;;;;;;3.38;2.20;;;23.10;67.70;;;;;;4941871;29;20400;-80
2022/04/19 12:35:54;;;;;;;5.90;2.85;;;24.60;63.90;;;;;;4958663;28;20435;-81
2022/04/19 12:38:29;;;;;;;3.65;2.25;;;24.10;64.50;;;;;;4955838;28;20027;-81
2022/04/19 12:40:54;;;;;;;3.83;2.58;;;23.20;64.50;;;;;;4955461;29;20015;-83
2022/04/19 12:43:20;;;;;;;3.90;2.40;;;22.50;67.30;;;;;;4956106;29;20019;-82
2022/04/19 12:45:48;;;;;;;4.03;2.53;;;23.30;65.00;;;;;;4955491;29;20050;-83
2022/04/19 12:48:21;;;;;;;5.07;2.55;;;24.90;63.90;;;;;;4955627;29;20039;-81
2022/04/19 12:50:47;;;;;;;4.45;2.65;;;25.90;61.70;;;;;;4955100;29;20027;-81
2022/04/19 12:53:23;;;;;;;6.47;2.80;;;26.40;61.60;;;;;;4955724;29;20665;-82
2022/04/19 12:55:49;;;;;;;5.15;2.90;;;25.00;61.50;;;;;;4955117;29;20035;-81
2022/04/19 12:58:15;;;;;;;5.35;2.78;;;25.30;63.50;;;;;;4955254;29;20054;-85
2022/04/19 13:00:41;;;;;;;4.65;2.67;;;25.60;61.50;;;;;;4938002;29;20055;-83
2022/04/19 13:03:07;;;;;;;4.35;2.80;;;23.00;66.00;;;;;;4954022;29;20069;-82
2022/04/19 13:13:45;;;;;;;5.00;2.22;;;20.30;74.50;;;;;;4953898;29;20046;-82
2022/04/19 13:16:11;;;;;;;7.38;2.30;;;20.00;76.60;;;;;;4952459;29;20019;-82
2022/04/19 13:18:37;;;;;;;4.65;2.28;;;19.40;78.20;;;;;;4935980;29;20031;-83
2022/04/19 13:21:03;;;;;;;3.97;2.55;;;19.50;78.20;;;;;;4935476;29;20057;-83
2022/04/19 13:23:29;;;;;;;4.32;2.20;;;19.40;77.20;;;;;;4953399;29;20019;-83
2022/04/19 13:25:55;;;;;;;5.07;2.40;;;19.30;78.00;;;;;;4935646;29;20479;-82
2022/04/19 13:28:25;;;;;;;5.03;2.45;;;19.40;78.90;;;;;;4936862;29;20033;-83
2022/04/19 13:30:52;;;;;;;5.82;2.60;;;20.00;78.50;;;;;;4954677;29;20039;-83
2022/04/19 13:33:17;;;;;;;2.80;2.20;;;20.10;77.60;;;;;;4937454;29;20035;-82
2022/04/19 13:35:43;;;;;;;4.70;2.50;;;19.40;80.50;;;;;;4954500;29;20406;-82
2022/04/19 13:38:24;;;;;;;6.85;3.30;;;19.00;81.90;;;;;;4955116;29;20019;-85
2022/04/19 13:40:50;;;;;;;9.52;5.60;;;18.30;85.80;;;;;;4954221;29;20151;-83
2022/04/19 13:43:16;;;;;;;3.92;2.70;;;17.80;86.80;;;;;;4954947;29;20083;-82
2022/04/19 13:45:42;;;;;;;4.68;2.58;;;17.60;87.70;;;;;;4954094;29;20539;-82
2022/04/19 13:48:08;;;;;;;3.33;2.35;;;17.60;88.40;;;;;;4934848;28;20058;-83
2022/04/19 13:50:35;;;;;;;4.75;2.53;;;18.00;88.40;;;;;;4953342;29;20050;-82